CheckWX is a tool to help pilots better visualize weather data.  It is not intended as a substitute for an official pre-flight weather briefing.

17:04:39 UTC

KPWM TAF
Portland International Jetport Airport
Portland, Maine, USA
KPWM 171138Z 1712/1812 01005KT P6SM FEW250 FM172100 VRB03KT P6SM SCT040 FM181000 01009KT P6SM OVC030

Nov-17@
12:00 UTC

Nov-17 @ 12:00 UTC

Nov-17@
21:00 UTC

Nov-17 @ 21:00 UTC

KPWM 171138Z 1712/1812 01005KT P6SM FEW250
Wind
  • 010° at 5 KTS
Cloud Levels
  • Few at 25,000' AGL

Nov-17@
21:00 UTC

Nov-17 @ 21:00 UTC

Nov-18@
10:00 UTC

Nov-18 @ 10:00 UTC

FM172100 VRB03KT P6SM SCT040

From

From Standard forecast or significant change

Wind
  • Variable at 3 KTS
Cloud Levels
  • Scattered at 4,000' AGL

Nov-18@
10:00 UTC

Nov-18 @ 10:00 UTC

Nov-18@
12:00 UTC

Nov-18 @ 12:00 UTC

FM181000 01009KT P6SM OVC030

From

From Standard forecast or significant change

Wind
  • 010° at 9 KTS
Cloud Levels
  • Overcast at 3,000' AGL